Terminal Aerodrome Forecast
Issued by NWS

Home | Current Version | Previous Version | Text Only | Print | Product List | Glossary On
Versions: 1 2 3 4 5 6 7 8 9 10 11 12 13 14 15 16 17 18 19 20 21 22 23 24 25 26
000
FTUS42 KGSP 290537
TAFHKY
TAF
KHKY 290537Z 2906/3006 VRB03KT P6SM VCSH SCT050 OVC100
      TEMPO 2908/2911 -SHRA BKN050 OVC080
     FM291200 36007KT P6SM -SHRA OVC030
     FM291900 35008KT P6SM VCSH OVC040
     FM300200 02004KT P6SM VCSH BKN050=

USA.gov is the U.S. government's official web portal to all federal, state and local government web resources and services.